createdAt,value
2018-11-22T00:00:00.321Z,41.08
2018-11-22T00:02:26.996Z,40.30
2018-11-22T00:04:53.726Z,32.48
2018-11-22T00:07:20.674Z,41.15
2018-11-22T00:09:47.331Z,41.73
2018-11-22T00:12:13.994Z,36.05
2018-11-22T00:14:40.914Z,39.95
2018-11-22T00:17:07.593Z,41.73
2018-11-22T00:19:34.257Z,33.00
2018-11-22T00:22:01.236Z,43.45
2018-11-22T00:24:27.887Z,35.38
2018-11-22T00:26:54.548Z,40.67
2018-11-22T00:29:21.251Z,40.03
2018-11-22T00:31:47.940Z,39.05
2018-11-22T00:34:14.592Z,39.88
2018-11-22T00:36:41.655Z,42.88
2018-11-22T00:39:09.737Z,38.33
2018-11-22T00:41:36.515Z,38.80
2018-11-22T00:44:03.520Z,38.95
2018-11-22T00:46:30.166Z,38.33
2018-11-22T00:48:56.826Z,44.48
2018-11-22T00:51:23.500Z,35.28
2018-11-22T00:53:50.142Z,44.08
2018-11-22T00:56:16.820Z,39.35
2018-11-22T00:58:43.477Z,36.05
2018-11-22T01:01:10.149Z,39.15
2018-11-22T01:03:36.812Z,35.40
2018-11-22T01:06:03.849Z,41.28
2018-11-22T01:08:30.684Z,36.50
2018-11-22T01:10:57.780Z,41.63
2018-11-22T01:13:24.689Z,44.25
2018-11-22T01:15:51.339Z,40.95
2018-11-22T01:18:17.994Z,43.45
2018-11-22T01:20:44.661Z,39.58
2018-11-22T01:23:11.350Z,41.60
2018-11-22T01:25:38.015Z,43.98
2018-11-22T01:28:04.765Z,39.03
2018-11-22T01:30:31.529Z,46.00
2018-11-22T01:32:58.220Z,41.13
2018-11-22T01:35:25.377Z,37.03
2018-11-22T01:37:52.074Z,40.65
2018-11-22T01:40:20.578Z,38.05
2018-11-22T01:42:47.242Z,47.33
2018-11-22T01:45:15.437Z,193.87
2018-11-22T01:47:42.201Z,133.60
2018-11-22T01:50:10.472Z,38.60
2018-11-22T01:52:37.471Z,41.80
2018-11-22T01:55:05.656Z,122.05
2018-11-22T01:57:32.314Z,41.58
2018-11-22T01:59:58.996Z,39.75
2018-11-22T02:02:25.661Z,44.38
2018-11-22T02:04:52.306Z,40.35
2018-11-22T02:07:18.973Z,44.50
2018-11-22T02:09:46.205Z,41.88
2018-11-22T02:12:12.937Z,38.92
2018-11-22T02:14:39.605Z,52.58
2018-11-22T02:17:06.382Z,41.10
2018-11-22T02:19:33.026Z,45.03
2018-11-22T02:21:59.684Z,42.17
2018-11-22T02:24:26.606Z,45.98
2018-11-22T02:26:53.269Z,46.80
2018-11-22T02:29:19.995Z,45.92
2018-11-22T02:31:46.718Z,45.65
2018-11-22T02:34:13.358Z,45.78
2018-11-22T02:36:40.027Z,45.63
2018-11-22T02:39:07.531Z,50.00
2018-11-22T02:41:34.181Z,44.93
2018-11-22T02:44:01.102Z,46.68
2018-11-22T02:46:27.774Z,46.35
2018-11-22T02:48:54.437Z,47.13
2018-11-22T02:51:21.095Z,51.83
2018-11-22T02:53:47.770Z,43.38
2018-11-22T02:56:14.586Z,44.10
2018-11-22T02:58:41.259Z,49.42
2018-11-22T03:01:08.053Z,44.30
2018-11-22T03:03:34.725Z,45.52
2018-11-22T03:06:01.450Z,47.80
2018-11-22T03:08:28.093Z,40.08
2018-11-22T03:10:54.738Z,44.30
2018-11-22T03:13:21.819Z,43.90
2018-11-22T03:15:48.603Z,48.63
2018-11-22T03:18:15.288Z,42.15
2018-11-22T03:20:42.101Z,40.35
2018-11-22T03:23:08.758Z,51.37
2018-11-22T03:25:35.746Z,46.42
2018-11-22T03:28:02.900Z,48.02
2018-11-22T03:30:30.123Z,43.78
2018-11-22T03:32:56.790Z,48.95
2018-11-22T03:35:24.778Z,42.30
2018-11-22T03:37:51.438Z,49.98
2018-11-22T03:40:19.653Z,47.85
2018-11-22T03:42:46.343Z,41.80
2018-11-22T03:45:13.849Z,49.40
2018-11-22T03:47:40.943Z,48.60
2018-11-22T03:50:09.568Z,40.65
2018-11-22T03:52:36.338Z,44.03
2018-11-22T03:55:04.085Z,48.13
2018-11-22T03:57:30.801Z,47.48
2018-11-22T03:59:57.442Z,48.13
2018-11-22T04:02:24.160Z,45.00
2018-11-22T04:04:50.978Z,48.83
2018-11-22T04:07:17.721Z,46.35
2018-11-22T04:09:44.853Z,45.60
2018-11-22T04:12:11.757Z,59.50
2018-11-22T04:14:38.434Z,47.80
2018-11-22T04:17:05.250Z,44.33
2018-11-22T04:19:32.320Z,57.43
2018-11-22T04:21:58.973Z,54.65
2018-11-22T04:24:25.638Z,48.85
2018-11-22T04:26:52.331Z,51.50
2018-11-22T04:29:18.978Z,51.83
2018-11-22T04:31:45.901Z,51.20
2018-11-22T04:34:12.675Z,43.20
2018-11-22T04:36:39.353Z,48.60
2018-11-22T04:39:07.863Z,45.95
2018-11-22T04:41:34.538Z,51.45
2018-11-22T04:44:01.194Z,47.23
2018-11-22T04:46:29.999Z,54.60
2018-11-22T04:48:56.771Z,49.75
2018-11-22T04:51:23.532Z,65.22
2018-11-22T04:53:50.193Z,55.30
2018-11-22T04:56:16.892Z,64.55
2018-11-22T04:58:43.562Z,52.55
2018-11-22T05:01:10.226Z,57.13
2018-11-22T05:03:36.931Z,56.45
2018-11-22T05:06:03.696Z,56.95
2018-11-22T05:08:30.360Z,64.75
2018-11-22T05:10:57.022Z,51.63
2018-11-22T05:13:23.678Z,51.58
2018-11-22T05:15:50.350Z,54.53
2018-11-22T05:18:17.029Z,51.95
2018-11-22T05:20:43.677Z,51.50
2018-11-22T05:23:10.342Z,59.65
2018-11-22T05:25:37.009Z,52.43
2018-11-22T05:28:03.901Z,60.03
2018-11-22T05:30:30.552Z,56.37
2018-11-22T05:32:57.210Z,58.20
2018-11-22T05:35:24.198Z,47.15
2018-11-22T05:37:50.920Z,59.03
2018-11-22T05:40:19.234Z,52.73
2018-11-22T05:42:45.917Z,60.25
2018-11-22T05:45:14.561Z,102.92
2018-11-22T05:47:41.289Z,57.58
2018-11-22T05:50:09.726Z,54.75
2018-11-22T05:52:36.444Z,60.48
2018-11-22T05:55:03.531Z,52.83
2018-11-22T05:57:30.190Z,51.13
2018-11-22T05:59:56.946Z,55.38
2018-11-22T06:02:23.628Z,55.92
2018-11-22T06:04:50.284Z,65.62
2018-11-22T06:07:16.949Z,62.20
2018-11-22T06:09:43.658Z,63.42
2018-11-22T06:12:10.326Z,63.63
2018-11-22T06:14:37.018Z,55.55
2018-11-22T06:17:03.811Z,63.28
2018-11-22T06:19:30.493Z,62.85
2018-11-22T06:21:57.241Z,56.45
2018-11-22T06:24:23.885Z,60.92
2018-11-22T06:26:50.586Z,63.63
2018-11-22T06:29:17.358Z,57.85
2018-11-22T06:31:44.029Z,60.75
2018-11-22T06:34:10.682Z,59.80
2018-11-22T06:36:37.405Z,56.77
2018-11-22T06:39:06.396Z,60.28
2018-11-22T06:41:33.545Z,59.83
2018-11-22T06:44:00.178Z,52.10
2018-11-22T06:46:26.842Z,58.13
2018-11-22T06:48:53.531Z,60.60
2018-11-22T06:51:20.192Z,58.75
2018-11-22T06:53:46.844Z,65.70
2018-11-22T06:56:13.805Z,57.30
2018-11-22T06:58:40.524Z,62.40
2018-11-22T07:01:07.185Z,68.55
2018-11-22T07:03:33.859Z,65.00
2018-11-22T07:06:00.520Z,67.65
2018-11-22T07:08:27.185Z,57.88
2018-11-22T07:10:53.888Z,60.65
2018-11-22T07:13:20.578Z,64.80
2018-11-22T07:15:47.275Z,71.45
2018-11-22T07:18:13.954Z,54.00
2018-11-22T07:20:40.617Z,59.98
2018-11-22T07:23:07.278Z,57.78
2018-11-22T07:25:33.944Z,61.92
2018-11-22T07:28:00.605Z,62.65
2018-11-22T07:30:42.321Z,56.55
2018-11-22T07:33:04.925Z,66.47
2018-11-22T07:35:32.805Z,55.35
2018-11-22T07:37:59.474Z,67.87
2018-11-22T07:40:27.700Z,65.65
2018-11-22T07:42:54.354Z,64.62
2018-11-22T07:45:25.868Z,84.85
2018-11-22T07:47:53.455Z,67.32
2018-11-22T07:50:21.020Z,68.30
2018-11-22T07:52:47.742Z,70.30
2018-11-22T07:55:15.414Z,57.17
2018-11-22T07:57:42.075Z,59.35
2018-11-22T08:00:10.838Z,62.58
2018-11-22T08:02:37.684Z,67.42
2018-11-22T08:05:05.146Z,63.68
2018-11-22T08:07:31.850Z,58.58
2018-11-22T08:09:58.503Z,61.50
2018-11-22T08:12:26.032Z,65.37
2018-11-22T08:14:51.851Z,71.28
2018-11-22T08:17:18.538Z,54.63
2018-11-22T08:19:45.243Z,65.52
2018-11-22T08:22:11.898Z,65.30
2018-11-22T08:24:38.560Z,68.47
2018-11-22T08:27:05.333Z,66.33
2018-11-22T12:18:07.156Z,64.07
2018-11-22T12:20:34.524Z,73.17
2018-11-22T12:23:02.032Z,72.53
2018-11-22T12:25:29.321Z,67.17
2018-11-22T12:27:58.992Z,79.40
2018-11-22T12:30:27.416Z,64.05
2018-11-22T12:33:00.248Z,62.58
2018-11-22T12:35:33.029Z,63.80
2018-11-22T12:38:06.590Z,77.95
2018-11-22T12:40:33.663Z,73.20
2018-11-22T12:43:00.738Z,80.55
2018-11-22T12:45:28.360Z,86.35
2018-11-22T12:47:55.698Z,74.10
2018-11-22T12:50:22.784Z,82.85
2018-11-22T12:52:50.200Z,89.42
2018-11-22T12:55:17.278Z,84.00
2018-11-22T12:57:44.388Z,78.33
2018-11-22T13:00:13.465Z,76.05
2018-11-22T13:02:40.740Z,72.45
2018-11-22T13:05:09.245Z,75.95
2018-11-22T13:07:36.613Z,81.40
2018-11-22T13:10:05.922Z,79.07
2018-11-22T13:12:33.537Z,95.17
2018-11-22T13:15:00.819Z,107.07
2018-11-22T13:17:27.912Z,74.55
2018-11-22T13:19:54.984Z,97.08
2018-11-22T13:22:22.053Z,67.08
2018-11-22T13:24:49.698Z,86.90
2018-11-22T13:27:16.773Z,83.15
2018-11-22T13:29:43.981Z,86.92
2018-11-22T13:32:11.323Z,66.25
2018-11-22T13:34:38.676Z,64.00
2018-11-22T13:37:06.054Z,609.70
2018-11-22T13:39:33.329Z,428.10
2018-11-22T13:42:00.644Z,577.37
2018-11-22T13:44:27.745Z,467.05
2018-11-22T13:46:54.816Z,407.55
2018-11-22T13:49:21.885Z,567.25
2018-11-22T13:51:49.336Z,336.05
2018-11-22T13:54:16.764Z,228.07
2018-11-22T13:56:44.293Z,277.00
2018-11-22T13:59:12.164Z,175.57
2018-11-22T14:01:39.597Z,115.28
2018-11-22T14:04:06.665Z,207.03
2018-11-22T14:06:33.742Z,139.22
2018-11-22T14:09:01.561Z,127.97
2018-11-22T14:11:28.714Z,131.10
2018-11-22T14:14:03.762Z,88.78
2018-11-22T14:16:31.066Z,95.53
2018-11-22T14:18:58.139Z,97.67
2018-11-22T14:21:25.429Z,107.15
2018-11-22T14:23:53.017Z,87.62
2018-11-22T14:26:20.230Z,113.75
2018-11-22T14:28:47.492Z,90.35
2018-11-22T14:31:15.113Z,67.60
2018-11-22T14:33:43.541Z,85.72
2018-11-22T14:36:10.955Z,79.58
2018-11-22T14:38:38.034Z,94.70
2018-11-22T14:41:05.805Z,69.50
2018-11-22T14:43:32.913Z,76.17
2018-11-22T14:45:59.977Z,67.30
2018-11-22T14:48:27.482Z,87.57
2018-11-22T14:51:00.925Z,72.05
2018-11-22T14:53:28.456Z,124.78
2018-11-22T14:55:55.590Z,154.53
2018-11-22T14:58:22.729Z,74.50
2018-11-22T15:00:49.780Z,105.90
2018-11-22T15:03:17.000Z,115.75
2018-11-22T15:05:44.457Z,72.47
2018-11-22T15:08:11.524Z,80.17
2018-11-22T15:10:38.597Z,91.63
2018-11-22T15:13:06.284Z,77.75
2018-11-22T15:15:33.374Z,70.87
2018-11-22T15:18:00.513Z,84.83
2018-11-22T15:20:28.140Z,66.10
2018-11-22T15:22:55.296Z,63.23
2018-11-22T15:25:25.713Z,61.42
2018-11-22T15:27:53.095Z,60.78
2018-11-22T15:30:22.688Z,63.52
2018-11-22T15:32:50.060Z,69.15
2018-11-22T15:35:18.633Z,80.83
2018-11-22T15:37:46.609Z,66.25
2018-11-22T15:40:16.120Z,61.63
2018-11-22T15:42:43.909Z,65.20
2018-11-22T15:45:12.598Z,67.80
2018-11-22T15:47:39.958Z,65.10
2018-11-22T15:50:09.051Z,66.37
2018-11-22T15:52:36.152Z,75.42
2018-11-22T15:55:03.761Z,65.08
2018-11-22T15:57:30.840Z,59.95
2018-11-22T15:59:57.899Z,64.87
2018-11-22T16:02:25.361Z,61.68
2018-11-22T16:04:52.484Z,61.35
2018-11-22T16:07:19.550Z,65.22
2018-11-22T16:09:46.908Z,59.08
2018-11-22T16:12:13.956Z,61.37
2018-11-22T16:14:41.673Z,63.20
2018-11-22T16:17:08.993Z,59.58
2018-11-22T16:19:36.768Z,59.63
2018-11-22T16:22:04.162Z,55.85
2018-11-22T16:24:31.789Z,56.23
2018-11-22T16:26:59.136Z,59.65
2018-11-22T16:29:26.267Z,66.77
2018-11-22T16:31:53.781Z,60.98
2018-11-22T16:34:20.941Z,58.85
2018-11-22T16:36:48.038Z,65.15
2018-11-22T16:39:15.137Z,65.83
2018-11-22T16:41:42.384Z,65.03
2018-11-22T16:44:09.440Z,63.98
2018-11-22T16:46:36.552Z,63.17
2018-11-22T16:49:03.931Z,90.87
2018-11-22T16:51:30.990Z,101.40
2018-11-22T16:53:58.113Z,130.85
2018-11-22T16:56:25.564Z,80.55
2018-11-22T16:58:52.614Z,124.78
2018-11-22T17:01:19.704Z,69.40
2018-11-22T17:03:47.009Z,74.62
2018-11-22T17:06:14.096Z,107.78
2018-11-22T17:08:41.189Z,147.60
2018-11-22T17:11:08.528Z,64.20
2018-11-22T17:13:35.780Z,88.87
2018-11-22T17:16:02.903Z,83.67
2018-11-22T17:18:30.154Z,125.60
2018-11-22T17:20:57.237Z,100.00
2018-11-22T17:23:24.374Z,73.83
2018-11-22T17:25:51.457Z,72.62
2018-11-22T17:28:18.528Z,59.88
2018-11-22T17:30:45.619Z,89.28
2018-11-22T17:33:12.752Z,72.67
2018-11-22T17:35:40.617Z,59.83
2018-11-22T17:38:08.472Z,92.97
2018-11-22T17:40:37.169Z,77.00
2018-11-22T17:43:04.896Z,96.17
2018-11-22T17:45:33.440Z,199.75
2018-11-22T17:48:00.940Z,131.07
2018-11-22T17:50:29.785Z,75.70
2018-11-22T17:52:57.217Z,84.32
2018-11-22T17:55:25.634Z,74.00
2018-11-22T17:57:52.690Z,106.70
2018-11-22T18:00:22.376Z,84.10
2018-11-22T18:02:50.612Z,106.52
2018-11-22T18:05:17.718Z,104.30
2018-11-22T18:07:45.196Z,111.97
2018-11-22T18:10:14.416Z,67.22
2018-11-22T18:12:42.591Z,83.00
2018-11-22T18:15:10.968Z,67.37
2018-11-22T18:17:38.241Z,156.10
2018-11-22T18:20:08.632Z,107.97
2018-11-22T18:22:35.783Z,114.60
2018-11-22T18:25:03.254Z,80.80
2018-11-22T18:27:33.931Z,111.05
2018-11-22T18:30:04.640Z,79.60
2018-11-22T18:32:32.023Z,93.35
2018-11-22T18:34:59.112Z,96.85
2018-11-22T18:37:26.538Z,70.57
2018-11-22T18:39:53.804Z,147.95
2018-11-22T18:42:20.905Z,83.80
2018-11-22T18:44:48.589Z,73.40
2018-11-22T18:47:16.410Z,114.65
2018-11-22T18:49:43.664Z,126.45
2018-11-22T18:52:11.013Z,91.42
2018-11-22T18:54:38.261Z,74.55
2018-11-22T18:57:06.559Z,110.90
2018-11-22T18:59:33.841Z,92.62
2018-11-22T19:02:01.570Z,70.00
2018-11-22T19:04:28.632Z,90.38
2018-11-22T19:06:56.632Z,115.08
2018-11-22T19:09:24.137Z,119.13
2018-11-22T19:11:51.507Z,70.83
2018-11-22T19:14:19.048Z,95.30
2018-11-22T19:16:46.110Z,131.35
2018-11-22T19:19:13.345Z,74.15
2018-11-22T19:21:41.076Z,78.50
2018-11-22T19:24:08.029Z,110.83
2018-11-22T19:26:35.110Z,70.40
2018-11-22T19:29:02.729Z,72.05
2018-11-22T19:31:29.960Z,222.95
2018-11-22T19:33:57.036Z,126.87
2018-11-22T19:36:24.138Z,195.53
2018-11-22T19:38:51.225Z,132.22
2018-11-22T19:41:18.297Z,100.65
2018-11-22T19:48:40.760Z,126.45
2018-11-22T19:51:07.852Z,60.00
2018-11-22T19:53:35.299Z,169.13
2018-11-22T19:56:02.397Z,140.37
2018-11-22T19:58:29.513Z,138.72
2018-11-22T20:00:56.932Z,72.55
2018-11-22T20:03:24.092Z,73.22
2018-11-22T20:05:51.372Z,171.18
2018-11-22T20:08:19.245Z,127.82
2018-11-22T20:10:46.789Z,92.67
2018-11-22T20:13:14.185Z,102.60
2018-11-22T20:15:41.308Z,68.83
2018-11-22T20:18:09.467Z,111.20
2018-11-22T20:20:37.061Z,106.17
2018-11-22T20:23:04.195Z,101.58
2018-11-22T20:25:31.282Z,93.85
2018-11-22T20:27:59.011Z,220.52
2018-11-22T20:30:30.745Z,73.05
2018-11-22T20:32:57.844Z,99.28
2018-11-22T20:35:25.287Z,76.67
2018-11-22T20:37:52.918Z,168.05
2018-11-22T20:40:21.232Z,130.43
2018-11-22T20:42:48.599Z,100.18
2018-11-22T20:45:17.223Z,122.25
2018-11-22T20:47:45.403Z,84.90
2018-11-22T20:50:14.764Z,75.52
2018-11-22T20:52:42.052Z,121.75
2018-11-22T20:55:12.088Z,134.37
2018-11-22T20:57:39.956Z,100.45
2018-11-22T21:00:10.690Z,101.60
2018-11-22T21:02:38.116Z,85.25
2018-11-22T21:05:06.114Z,191.00
2018-11-22T21:07:33.189Z,85.25
2018-11-22T21:10:00.264Z,87.50
2018-11-22T21:12:27.503Z,108.45
2018-11-22T21:14:54.880Z,133.07
2018-11-22T21:17:22.165Z,119.45
2018-11-22T21:19:49.276Z,107.95
2018-11-22T21:22:16.336Z,68.80
2018-11-22T21:24:43.392Z,72.82
2018-11-22T21:27:10.676Z,134.18
2018-11-22T21:29:37.751Z,155.52
2018-11-22T21:32:05.273Z,142.70
2018-11-22T21:34:32.376Z,99.70
2018-11-22T21:36:59.654Z,96.20
2018-11-22T21:39:26.719Z,92.82
2018-11-22T21:41:54.065Z,121.22
2018-11-22T21:44:21.737Z,110.88
2018-11-22T21:46:49.272Z,75.50
2018-11-22T21:49:16.577Z,79.55
2018-11-22T21:51:44.720Z,95.87
2018-11-22T21:54:11.794Z,76.05
2018-11-22T21:56:38.912Z,95.12
2018-11-22T21:59:05.993Z,76.87
2018-11-22T22:01:33.353Z,97.82
2018-11-22T22:04:00.426Z,103.47
2018-11-22T22:06:27.499Z,80.32
2018-11-22T22:08:55.778Z,94.90
2018-11-22T22:11:23.141Z,89.95
2018-11-22T22:13:50.229Z,78.85
2018-11-22T22:16:17.341Z,95.55
2018-11-22T22:18:44.408Z,89.00
2018-11-22T22:21:11.479Z,87.20
2018-11-22T22:23:38.709Z,100.07
2018-11-22T22:26:05.792Z,89.72
2018-11-22T22:28:33.322Z,76.07
2018-11-22T22:31:01.045Z,75.32
2018-11-22T22:33:28.115Z,74.87
2018-11-22T22:35:55.224Z,95.60
2018-11-22T22:38:22.493Z,85.28
2018-11-22T22:40:49.584Z,84.50
2018-11-22T22:43:16.643Z,82.57
2018-11-22T22:45:44.241Z,96.80
2018-11-22T22:48:11.918Z,80.53
2018-11-22T22:50:39.645Z,87.35
2018-11-22T22:53:07.574Z,77.27
2018-11-22T22:55:34.657Z,76.77
2018-11-22T22:58:01.724Z,81.17
2018-11-22T23:00:35.031Z,77.80
2018-11-22T23:03:04.334Z,80.15
2018-11-22T23:05:31.763Z,85.97
2018-11-22T23:07:59.317Z,76.07
2018-11-22T23:10:26.488Z,91.00
2018-11-22T23:12:54.275Z,92.67
2018-11-22T23:15:21.922Z,98.10
2018-11-22T23:17:49.042Z,82.75
2018-11-22T23:20:18.281Z,80.03
2018-11-22T23:22:45.822Z,97.37
2018-11-22T23:25:13.613Z,103.42
2018-11-22T23:27:40.854Z,99.05
2018-11-22T23:30:17.284Z,83.72
2018-11-22T23:32:46.605Z,89.77
2018-11-22T23:35:17.348Z,86.70
2018-11-22T23:37:44.600Z,83.95
2018-11-22T23:40:13.147Z,81.75
2018-11-22T23:42:40.766Z,77.70
2018-11-22T23:45:09.212Z,84.13
2018-11-22T23:47:36.777Z,86.63
2018-11-22T23:50:05.104Z,84.05
2018-11-22T23:52:32.200Z,88.27
2018-11-22T23:54:59.259Z,80.87
2018-11-22T23:57:26.346Z,80.70
2018-11-22T23:59:53.416Z,95.50
